createdAt,value
2018-05-16T00:03:59.086Z,99.99
2018-05-16T00:15:02.884Z,99.99
2018-05-16T00:26:06.830Z,99.99
2018-05-16T00:37:06.781Z,99.99
2018-05-16T00:48:10.702Z,99.99
2018-05-16T00:59:10.045Z,99.99
2018-05-16T01:10:08.176Z,99.99
2018-05-16T01:21:10.784Z,99.99
2018-05-16T01:32:09.007Z,99.99
2018-05-16T01:43:08.386Z,99.99
2018-05-16T01:54:11.002Z,99.99
2018-05-16T02:05:10.644Z,99.99
2018-05-16T02:16:10.522Z,99.99
2018-05-16T02:27:11.334Z,99.99
2018-05-16T02:38:14.854Z,99.99
2018-05-16T02:49:14.778Z,99.99
2018-05-16T03:00:12.686Z,99.99
2018-05-16T03:11:11.375Z,99.99
2018-05-16T03:22:11.075Z,99.99
2018-05-16T03:33:14.551Z,99.99
2018-05-16T03:44:13.500Z,99.99
2018-05-16T03:55:10.301Z,99.99
2018-05-16T04:06:14.207Z,99.99
2018-05-16T04:17:13.575Z,99.99
2018-05-16T04:28:10.977Z,99.99
2018-05-16T04:39:09.325Z,99.99
2018-05-16T04:50:09.009Z,99.99
2018-05-16T05:01:07.940Z,99.99
2018-05-16T05:12:11.643Z,99.99
2018-05-16T05:23:09.401Z,99.99
2018-05-16T05:34:12.376Z,99.99
2018-05-16T05:45:16.005Z,99.99
2018-05-16T05:56:15.508Z,99.99
2018-05-16T06:07:19.602Z,99.99
2018-05-16T06:18:24.644Z,99.99
2018-05-16T06:29:26.180Z,99.99
2018-05-16T06:40:26.745Z,99.99
2018-05-16T06:51:25.723Z,99.99
2018-05-16T07:02:27.476Z,98.71
2018-05-16T07:13:28.413Z,94.11
2018-05-16T07:24:31.853Z,94.37
2018-05-16T07:35:30.771Z,92.86
2018-05-16T07:46:30.139Z,92.02
2018-05-16T07:57:33.515Z,94.44
2018-05-16T08:08:36.400Z,97.51
2018-05-16T08:19:34.434Z,93.29
2018-05-16T08:30:33.235Z,89.41
2018-05-16T08:41:31.803Z,90.17
2018-05-16T08:52:34.331Z,85.30
2018-05-16T09:03:34.993Z,83.39
2018-05-16T09:14:35.158Z,88.26
2018-05-16T09:25:33.382Z,83.91
2018-05-16T09:36:37.082Z,80.41
2018-05-16T09:47:39.826Z,82.30
2018-05-16T09:58:38.936Z,82.56
2018-05-16T10:09:37.532Z,87.24
2018-05-16T10:20:36.146Z,78.22
2018-05-16T10:31:35.505Z,73.57
2018-05-16T10:42:38.897Z,78.35
2018-05-16T10:53:39.781Z,73.13
2018-05-16T11:04:42.406Z,69.02
2018-05-16T11:15:43.458Z,68.89
2018-05-16T11:26:45.999Z,66.89
2018-05-16T11:37:45.598Z,64.54
2018-05-16T11:48:45.422Z,70.76
2018-05-16T11:59:42.883Z,71.53
2018-05-16T12:10:41.319Z,79.36
2018-05-16T12:21:38.200Z,86.21
2018-05-16T12:32:33.427Z,90.91
2018-05-16T12:43:34.181Z,97.02
2018-05-16T12:54:36.957Z,85.60
2018-05-16T13:05:41.106Z,77.67
2018-05-16T13:16:41.009Z,70.65
2018-05-16T13:27:44.557Z,66.61
2018-05-16T13:38:48.491Z,70.06
2018-05-16T13:49:43.674Z,77.93
2018-05-16T14:00:40.339Z,76.83
2018-05-16T14:11:31.911Z,85.83
2018-05-16T14:22:31.913Z,79.43
2018-05-16T14:33:27.417Z,82.48
2018-05-16T14:44:25.410Z,87.35
2018-05-16T14:55:24.533Z,84.41
2018-05-16T15:06:23.049Z,82.51
2018-05-16T15:17:18.209Z,78.42
2018-05-16T15:28:13.253Z,82.89
2018-05-16T15:39:14.311Z,82.81
2018-05-16T15:50:15.194Z,78.45
2018-05-16T16:01:19.050Z,82.87
2018-05-16T16:12:15.627Z,88.71
2018-05-16T16:23:16.637Z,90.75
2018-05-16T16:34:18.952Z,95.53
2018-05-16T16:45:16.692Z,95.47
2018-05-16T16:56:19.384Z,98.63
2018-05-16T17:07:15.489Z,99.99
2018-05-16T17:18:18.271Z,99.99
2018-05-16T17:29:15.146Z,99.99
2018-05-16T17:40:15.822Z,99.99
2018-05-16T17:51:17.200Z,99.99
2018-05-16T18:02:29.310Z,99.99
2018-05-16T18:13:25.419Z,99.99
2018-05-16T18:24:24.789Z,99.99
2018-05-16T18:35:17.246Z,99.99
2018-05-16T18:46:10.801Z,99.99
2018-05-16T18:57:08.941Z,99.99
2018-05-16T19:08:12.169Z,99.99
2018-05-16T19:19:10.892Z,99.99
2018-05-16T19:30:05.699Z,99.99
2018-05-16T19:41:03.402Z,99.99
2018-05-16T19:52:02.207Z,99.99
2018-05-16T20:03:00.995Z,99.99
2018-05-16T20:13:53.413Z,99.99
2018-05-16T20:24:55.270Z,99.99
2018-05-16T20:35:55.753Z,99.99
2018-05-16T20:46:53.566Z,99.99
2018-05-16T20:57:53.104Z,99.99
2018-05-16T21:08:51.258Z,99.99
2018-05-16T21:19:53.055Z,99.99
2018-05-16T21:30:51.549Z,99.99
2018-05-16T21:41:50.165Z,99.99
2018-05-16T21:52:51.354Z,99.99
2018-05-16T22:03:49.482Z,99.99
2018-05-16T22:14:52.360Z,99.99
2018-05-16T22:25:49.668Z,99.99
2018-05-16T22:36:50.783Z,99.99
2018-05-16T22:47:48.023Z,99.99
2018-05-16T22:58:49.306Z,99.99
2018-05-16T23:09:51.923Z,99.99
2018-05-16T23:20:49.676Z,99.99
2018-05-16T23:31:49.899Z,99.99
2018-05-16T23:42:50.310Z,99.99
2018-05-16T23:53:48.930Z,99.99
